sensor_id;sensor_type;location;lat;lon;timestamp;P1;durP1;ratioP1;P2;durP2;ratioP2
11427;SDS011;5770;44.504;11.346;2023-02-13T00:01:15;56.40;;;40.45;;
11427;SDS011;5770;44.504;11.346;2023-02-13T00:03:42;57.75;;;39.97;;
11427;SDS011;5770;44.504;11.346;2023-02-13T00:06:09;52.53;;;39.13;;
11427;SDS011;5770;44.504;11.346;2023-02-13T00:08:36;56.25;;;39.90;;
11427;SDS011;5770;44.504;11.346;2023-02-13T00:11:04;49.05;;;39.47;;
11427;SDS011;5770;44.504;11.346;2023-02-13T00:13:31;53.58;;;39.00;;
11427;SDS011;5770;44.504;11.346;2023-02-13T00:16:01;60.67;;;40.47;;
11427;SDS011;5770;44.504;11.346;2023-02-13T00:18:29;57.50;;;40.45;;
11427;SDS011;5770;44.504;11.346;2023-02-13T00:21:04;60.67;;;39.40;;
11427;SDS011;5770;44.504;11.346;2023-02-13T00:23:33;53.75;;;39.35;;
11427;SDS011;5770;44.504;11.346;2023-02-13T00:26:04;56.30;;;39.85;;
11427;SDS011;5770;44.504;11.346;2023-02-13T00:28:32;50.25;;;37.58;;
11427;SDS011;5770;44.504;11.346;2023-02-13T00:31:04;51.17;;;41.08;;
11427;SDS011;5770;44.504;11.346;2023-02-13T00:33:32;54.42;;;40.08;;
11427;SDS011;5770;44.504;11.346;2023-02-13T00:36:03;57.95;;;40.30;;
11427;SDS011;5770;44.504;11.346;2023-02-13T00:38:31;58.25;;;40.65;;
11427;SDS011;5770;44.504;11.346;2023-02-13T00:40:59;52.47;;;39.70;;
11427;SDS011;5770;44.504;11.346;2023-02-13T00:43:26;50.60;;;39.10;;
11427;SDS011;5770;44.504;11.346;2023-02-13T00:45:53;50.20;;;39.85;;
11427;SDS011;5770;44.504;11.346;2023-02-13T00:48:21;57.10;;;40.42;;
11427;SDS011;5770;44.504;11.346;2023-02-13T00:50:48;51.60;;;41.03;;
11427;SDS011;5770;44.504;11.346;2023-02-13T00:53:16;54.58;;;38.90;;
11427;SDS011;5770;44.504;11.346;2023-02-13T00:55:43;50.42;;;39.70;;
11427;SDS011;5770;44.504;11.346;2023-02-13T00:58:10;56.95;;;39.45;;
11427;SDS011;5770;44.504;11.346;2023-02-13T01:00:37;50.97;;;37.80;;
11427;SDS011;5770;44.504;11.346;2023-02-13T01:03:05;43.08;;;33.50;;
11427;SDS011;5770;44.504;11.346;2023-02-13T01:05:33;41.63;;;32.58;;
11427;SDS011;5770;44.504;11.346;2023-02-13T01:08:00;42.45;;;32.58;;
11427;SDS011;5770;44.504;11.346;2023-02-13T01:10:27;42.20;;;33.97;;
11427;SDS011;5770;44.504;11.346;2023-02-13T01:12:54;42.35;;;34.70;;
11427;SDS011;5770;44.504;11.346;2023-02-13T01:15:21;45.27;;;36.03;;
11427;SDS011;5770;44.504;11.346;2023-02-13T01:17:48;45.38;;;35.70;;
11427;SDS011;5770;44.504;11.346;2023-02-13T01:20:15;46.63;;;35.85;;
11427;SDS011;5770;44.504;11.346;2023-02-13T01:22:44;43.50;;;34.78;;
11427;SDS011;5770;44.504;11.346;2023-02-13T01:25:11;44.00;;;35.03;;
11427;SDS011;5770;44.504;11.346;2023-02-13T01:27:38;41.83;;;34.00;;
11427;SDS011;5770;44.504;11.346;2023-02-13T01:30:06;39.58;;;32.25;;
11427;SDS011;5770;44.504;11.346;2023-02-13T01:32:35;39.88;;;32.15;;
11427;SDS011;5770;44.504;11.346;2023-02-13T01:35:02;39.33;;;31.42;;
11427;SDS011;5770;44.504;11.346;2023-02-13T01:37:29;37.95;;;31.45;;
11427;SDS011;5770;44.504;11.346;2023-02-13T01:39:58;38.25;;;31.52;;
11427;SDS011;5770;44.504;11.346;2023-02-13T01:42:25;40.85;;;31.40;;
11427;SDS011;5770;44.504;11.346;2023-02-13T01:44:54;40.47;;;30.92;;
11427;SDS011;5770;44.504;11.346;2023-02-13T01:47:23;37.45;;;30.60;;
11427;SDS011;5770;44.504;11.346;2023-02-13T01:49:57;37.65;;;30.15;;
11427;SDS011;5770;44.504;11.346;2023-02-13T01:52:28;37.03;;;29.85;;
11427;SDS011;5770;44.504;11.346;2023-02-13T01:54:57;38.40;;;30.15;;
11427;SDS011;5770;44.504;11.346;2023-02-13T01:57:26;37.97;;;29.90;;
11427;SDS011;5770;44.504;11.346;2023-02-13T01:59:55;35.13;;;29.77;;
11427;SDS011;5770;44.504;11.346;2023-02-13T02:02:23;36.15;;;29.67;;
11427;SDS011;5770;44.504;11.346;2023-02-13T02:04:50;37.95;;;30.23;;
11427;SDS011;5770;44.504;11.346;2023-02-13T02:07:19;37.97;;;29.63;;
11427;SDS011;5770;44.504;11.346;2023-02-13T02:09:49;35.13;;;29.27;;
11427;SDS011;5770;44.504;11.346;2023-02-13T02:12:22;38.80;;;30.08;;
11427;SDS011;5770;44.504;11.346;2023-02-13T02:14:52;36.97;;;29.95;;
11427;SDS011;5770;44.504;11.346;2023-02-13T02:17:21;37.22;;;28.77;;
11427;SDS011;5770;44.504;11.346;2023-02-13T02:19:52;47.58;;;30.60;;
11427;SDS011;5770;44.504;11.346;2023-02-13T02:22:28;47.20;;;31.15;;
11427;SDS011;5770;44.504;11.346;2023-02-13T02:25:24;43.75;;;30.48;;
11427;SDS011;5770;44.504;11.346;2023-02-13T02:34:05;40.35;;;30.77;;
11427;SDS011;5770;44.504;11.346;2023-02-13T02:36:46;37.28;;;30.23;;
11427;SDS011;5770;44.504;11.346;2023-02-13T02:39:29;38.17;;;30.65;;
11427;SDS011;5770;44.504;11.346;2023-02-13T02:41:58;35.72;;;28.23;;
11427;SDS011;5770;44.504;11.346;2023-02-13T02:44:31;32.88;;;26.00;;
11427;SDS011;5770;44.504;11.346;2023-02-13T02:47:10;34.45;;;25.50;;
11427;SDS011;5770;44.504;11.346;2023-02-13T02:50:10;29.73;;;24.63;;
11427;SDS011;5770;44.504;11.346;2023-02-13T02:52:52;33.63;;;25.77;;
11427;SDS011;5770;44.504;11.346;2023-02-13T02:55:31;29.55;;;24.38;;
11427;SDS011;5770;44.504;11.346;2023-02-13T02:58:03;30.13;;;24.75;;
11427;SDS011;5770;44.504;11.346;2023-02-13T03:00:52;26.83;;;23.83;;
11427;SDS011;5770;44.504;11.346;2023-02-13T03:03:37;27.58;;;23.75;;
11427;SDS011;5770;44.504;11.346;2023-02-13T03:06:26;28.58;;;23.42;;
11427;SDS011;5770;44.504;11.346;2023-02-13T03:08:58;29.70;;;23.48;;
11427;SDS011;5770;44.504;11.346;2023-02-13T03:11:48;26.48;;;23.42;;
11427;SDS011;5770;44.504;11.346;2023-02-13T03:14:34;27.85;;;22.67;;
11427;SDS011;5770;44.504;11.346;2023-02-13T03:17:02;26.67;;;22.58;;
11427;SDS011;5770;44.504;11.346;2023-02-13T03:19:52;26.98;;;21.10;;
11427;SDS011;5770;44.504;11.346;2023-02-13T03:22:43;26.25;;;21.27;;
11427;SDS011;5770;44.504;11.346;2023-02-13T03:25:14;22.33;;;19.93;;
11427;SDS011;5770;44.504;11.346;2023-02-13T03:27:54;22.93;;;19.87;;
11427;SDS011;5770;44.504;11.346;2023-02-13T03:30:44;22.58;;;19.60;;
11427;SDS011;5770;44.504;11.346;2023-02-13T03:33:26;22.05;;;18.88;;
11427;SDS011;5770;44.504;11.346;2023-02-13T03:36:02;23.83;;;19.45;;
11427;SDS011;5770;44.504;11.346;2023-02-13T03:38:51;22.80;;;19.27;;
11427;SDS011;5770;44.504;11.346;2023-02-13T03:41:21;22.48;;;18.92;;
11427;SDS011;5770;44.504;11.346;2023-02-13T03:43:59;23.77;;;19.30;;
11427;SDS011;5770;44.504;11.346;2023-02-13T03:46:38;22.80;;;18.10;;
11427;SDS011;5770;44.504;11.346;2023-02-13T03:49:07;24.00;;;19.43;;
11427;SDS011;5770;44.504;11.346;2023-02-13T03:52:01;22.53;;;19.10;;
11427;SDS011;5770;44.504;11.346;2023-02-13T03:54:32;21.10;;;18.20;;
11427;SDS011;5770;44.504;11.346;2023-02-13T03:57:21;21.17;;;18.05;;
11427;SDS011;5770;44.504;11.346;2023-02-13T04:00:09;24.10;;;18.17;;
11427;SDS011;5770;44.504;11.346;2023-02-13T04:02:38;21.20;;;18.52;;
11427;SDS011;5770;44.504;11.346;2023-02-13T04:05:10;21.33;;;17.77;;
11427;SDS011;5770;44.504;11.346;2023-02-13T04:07:41;23.87;;;18.93;;
11427;SDS011;5770;44.504;11.346;2023-02-13T04:10:10;24.23;;;19.85;;
11427;SDS011;5770;44.504;11.346;2023-02-13T04:12:42;27.50;;;18.20;;
11427;SDS011;5770;44.504;11.346;2023-02-13T04:15:17;21.70;;;18.25;;
11427;SDS011;5770;44.504;11.346;2023-02-13T04:17:47;22.63;;;17.77;;
11427;SDS011;5770;44.504;11.346;2023-02-13T04:20:19;26.23;;;18.33;;
11427;SDS011;5770;44.504;11.346;2023-02-13T04:22:46;21.77;;;17.67;;
11427;SDS011;5770;44.504;11.346;2023-02-13T04:25:15;19.87;;;16.97;;
11427;SDS011;5770;44.504;11.346;2023-02-13T04:27:43;24.53;;;18.00;;
11427;SDS011;5770;44.504;11.346;2023-02-13T04:30:11;22.20;;;18.67;;
11427;SDS011;5770;44.504;11.346;2023-02-13T04:32:38;21.10;;;16.40;;
11427;SDS011;5770;44.504;11.346;2023-02-13T04:35:05;22.60;;;18.30;;
11427;SDS011;5770;44.504;11.346;2023-02-13T04:37:33;21.35;;;17.63;;
11427;SDS011;5770;44.504;11.346;2023-02-13T04:40:00;21.60;;;16.70;;
11427;SDS011;5770;44.504;11.346;2023-02-13T04:42:28;20.23;;;17.20;;
11427;SDS011;5770;44.504;11.346;2023-02-13T04:44:55;19.70;;;16.93;;
11427;SDS011;5770;44.504;11.346;2023-02-13T04:47:22;20.70;;;16.90;;
11427;SDS011;5770;44.504;11.346;2023-02-13T04:49:49;21.93;;;16.13;;
11427;SDS011;5770;44.504;11.346;2023-02-13T04:52:16;20.87;;;16.77;;
11427;SDS011;5770;44.504;11.346;2023-02-13T04:54:43;23.02;;;16.63;;
11427;SDS011;5770;44.504;11.346;2023-02-13T04:57:10;22.13;;;16.83;;
11427;SDS011;5770;44.504;11.346;2023-02-13T04:59:39;21.77;;;16.77;;
11427;SDS011;5770;44.504;11.346;2023-02-13T05:02:06;21.87;;;16.20;;
11427;SDS011;5770;44.504;11.346;2023-02-13T05:04:33;24.10;;;16.70;;
11427;SDS011;5770;44.504;11.346;2023-02-13T05:07:00;24.17;;;16.37;;
11427;SDS011;5770;44.504;11.346;2023-02-13T05:09:27;19.67;;;16.07;;
11427;SDS011;5770;44.504;11.346;2023-02-13T05:11:54;19.83;;;15.87;;
11427;SDS011;5770;44.504;11.346;2023-02-13T05:14:20;20.27;;;16.07;;
11427;SDS011;5770;44.504;11.346;2023-02-13T05:16:49;21.60;;;16.20;;
11427;SDS011;5770;44.504;11.346;2023-02-13T05:19:16;18.30;;;15.37;;
11427;SDS011;5770;44.504;11.346;2023-02-13T05:21:43;20.73;;;15.70;;
11427;SDS011;5770;44.504;11.346;2023-02-13T05:24:27;21.50;;;15.43;;
11427;SDS011;5770;44.504;11.346;2023-02-13T05:26:54;23.50;;;15.63;;
11427;SDS011;5770;44.504;11.346;2023-02-13T05:29:21;20.37;;;14.30;;
11427;SDS011;5770;44.504;11.346;2023-02-13T05:31:50;20.23;;;15.30;;
11427;SDS011;5770;44.504;11.346;2023-02-13T05:34:18;23.60;;;15.90;;
11427;SDS011;5770;44.504;11.346;2023-02-13T05:36:46;17.33;;;14.57;;
11427;SDS011;5770;44.504;11.346;2023-02-13T05:39:13;19.47;;;14.80;;
11427;SDS011;5770;44.504;11.346;2023-02-13T05:41:41;18.13;;;15.10;;
11427;SDS011;5770;44.504;11.346;2023-02-13T05:44:08;21.17;;;15.27;;
11427;SDS011;5770;44.504;11.346;2023-02-13T05:46:36;19.33;;;16.17;;
11427;SDS011;5770;44.504;11.346;2023-02-13T05:49:05;19.83;;;15.23;;
11427;SDS011;5770;44.504;11.346;2023-02-13T05:51:34;21.33;;;14.75;;
11427;SDS011;5770;44.504;11.346;2023-02-13T05:54:01;23.60;;;15.27;;
11427;SDS011;5770;44.504;11.346;2023-02-13T05:56:28;19.57;;;14.83;;
11427;SDS011;5770;44.504;11.346;2023-02-13T05:58:55;19.27;;;14.60;;
11427;SDS011;5770;44.504;11.346;2023-02-13T06:01:22;18.23;;;14.70;;
11427;SDS011;5770;44.504;11.346;2023-02-13T06:03:50;16.57;;;13.67;;
11427;SDS011;5770;44.504;11.346;2023-02-13T06:06:18;18.70;;;14.77;;
11427;SDS011;5770;44.504;11.346;2023-02-13T06:08:46;19.67;;;15.37;;
11427;SDS011;5770;44.504;11.346;2023-02-13T06:11:13;19.10;;;14.20;;
11427;SDS011;5770;44.504;11.346;2023-02-13T06:13:40;20.10;;;13.90;;
11427;SDS011;5770;44.504;11.346;2023-02-13T06:16:07;20.50;;;13.87;;
11427;SDS011;5770;44.504;11.346;2023-02-13T06:18:35;21.30;;;14.17;;
11427;SDS011;5770;44.504;11.346;2023-02-13T06:21:03;24.83;;;13.97;;
11427;SDS011;5770;44.504;11.346;2023-02-13T06:23:31;18.70;;;13.67;;
11427;SDS011;5770;44.504;11.346;2023-02-13T06:26:00;25.23;;;13.93;;
11427;SDS011;5770;44.504;11.346;2023-02-13T06:28:28;21.33;;;13.87;;
11427;SDS011;5770;44.504;11.346;2023-02-13T06:30:55;24.43;;;14.57;;
11427;SDS011;5770;44.504;11.346;2023-02-13T06:33:21;21.67;;;13.40;;
11427;SDS011;5770;44.504;11.346;2023-02-13T06:35:48;21.93;;;13.63;;
11427;SDS011;5770;44.504;11.346;2023-02-13T06:38:15;24.07;;;13.20;;
11427;SDS011;5770;44.504;11.346;2023-02-13T06:40:44;21.10;;;14.03;;
11427;SDS011;5770;44.504;11.346;2023-02-13T06:43:12;23.63;;;13.77;;
11427;SDS011;5770;44.504;11.346;2023-02-13T06:45:39;20.20;;;13.23;;
11427;SDS011;5770;44.504;11.346;2023-02-13T06:48:06;18.27;;;13.30;;
11427;SDS011;5770;44.504;11.346;2023-02-13T06:50:33;19.97;;;13.47;;
11427;SDS011;5770;44.504;11.346;2023-02-13T06:53:00;15.20;;;12.67;;
11427;SDS011;5770;44.504;11.346;2023-02-13T06:55:27;15.77;;;13.10;;
11427;SDS011;5770;44.504;11.346;2023-02-13T06:57:56;22.60;;;13.90;;
11427;SDS011;5770;44.504;11.346;2023-02-13T07:00:23;16.77;;;13.17;;
11427;SDS011;5770;44.504;11.346;2023-02-13T07:02:51;17.77;;;13.27;;
11427;SDS011;5770;44.504;11.346;2023-02-13T07:05:18;18.23;;;13.87;;
11427;SDS011;5770;44.504;11.346;2023-02-13T07:07:45;20.38;;;13.52;;
11427;SDS011;5770;44.504;11.346;2023-02-13T07:10:12;18.10;;;13.57;;
11427;SDS011;5770;44.504;11.346;2023-02-13T07:12:40;19.77;;;14.07;;
11427;SDS011;5770;44.504;11.346;2023-02-13T07:15:08;18.10;;;13.30;;
11427;SDS011;5770;44.504;11.346;2023-02-13T07:17:36;24.00;;;14.23;;
11427;SDS011;5770;44.504;11.346;2023-02-13T07:20:04;17.97;;;13.57;;
11427;SDS011;5770;44.504;11.346;2023-02-13T07:22:31;22.50;;;14.63;;
11427;SDS011;5770;44.504;11.346;2023-02-13T07:24:58;16.27;;;12.97;;
11427;SDS011;5770;44.504;11.346;2023-02-13T07:27:26;18.77;;;13.57;;
11427;SDS011;5770;44.504;11.346;2023-02-13T07:29:55;21.93;;;13.57;;
11427;SDS011;5770;44.504;11.346;2023-02-13T07:32:24;20.73;;;13.30;;
11427;SDS011;5770;44.504;11.346;2023-02-13T07:34:50;20.70;;;12.90;;
11427;SDS011;5770;44.504;11.346;2023-02-13T07:37:17;18.15;;;12.25;;
11427;SDS011;5770;44.504;11.346;2023-02-13T07:39:44;18.17;;;11.73;;
11427;SDS011;5770;44.504;11.346;2023-02-13T07:42:11;19.15;;;12.38;;
11427;SDS011;5770;44.504;11.346;2023-02-13T07:44:38;20.95;;;15.10;;
11427;SDS011;5770;44.504;11.346;2023-02-13T07:47:05;23.33;;;18.83;;
11427;SDS011;5770;44.504;11.346;2023-02-13T07:49:34;25.85;;;20.70;;
11427;SDS011;5770;44.504;11.346;2023-02-13T07:52:01;32.33;;;23.17;;
11427;SDS011;5770;44.504;11.346;2023-02-13T07:54:29;32.37;;;21.60;;
11427;SDS011;5770;44.504;11.346;2023-02-13T07:56:56;28.35;;;23.30;;
11427;SDS011;5770;44.504;11.346;2023-02-13T07:59:23;33.78;;;24.17;;
11427;SDS011;5770;44.504;11.346;2023-02-13T08:01:50;36.73;;;25.67;;
11427;SDS011;5770;44.504;11.346;2023-02-13T08:04:17;34.17;;;27.20;;
11427;SDS011;5770;44.504;11.346;2023-02-13T08:06:45;38.30;;;28.15;;
11427;SDS011;5770;44.504;11.346;2023-02-13T08:09:16;39.85;;;28.95;;
11427;SDS011;5770;44.504;11.346;2023-02-13T08:12:04;37.92;;;29.27;;
11427;SDS011;5770;44.504;11.346;2023-02-13T08:14:35;38.85;;;30.55;;
11427;SDS011;5770;44.504;11.346;2023-02-13T08:17:03;38.60;;;29.60;;
11427;SDS011;5770;44.504;11.346;2023-02-13T08:19:30;38.72;;;32.00;;
11427;SDS011;5770;44.504;11.346;2023-02-13T08:21:58;41.08;;;30.90;;
11427;SDS011;5770;44.504;11.346;2023-02-13T08:24:25;37.38;;;30.48;;
11427;SDS011;5770;44.504;11.346;2023-02-13T08:26:53;41.47;;;29.98;;
11427;SDS011;5770;44.504;11.346;2023-02-13T08:29:21;41.45;;;31.35;;
11427;SDS011;5770;44.504;11.346;2023-02-13T08:31:48;37.42;;;30.83;;
11427;SDS011;5770;44.504;11.346;2023-02-13T08:34:17;56.20;;;32.85;;
11427;SDS011;5770;44.504;11.346;2023-02-13T08:37:00;47.15;;;33.20;;
11427;SDS011;5770;44.504;11.346;2023-02-13T08:39:27;47.78;;;33.70;;
11427;SDS011;5770;44.504;11.346;2023-02-13T08:41:54;41.03;;;32.55;;
11427;SDS011;5770;44.504;11.346;2023-02-13T08:44:21;43.28;;;33.05;;
11427;SDS011;5770;44.504;11.346;2023-02-13T08:46:48;40.72;;;33.60;;
11427;SDS011;5770;44.504;11.346;2023-02-13T08:49:15;45.00;;;32.10;;
11427;SDS011;5770;44.504;11.346;2023-02-13T08:51:42;39.42;;;31.45;;
11427;SDS011;5770;44.504;11.346;2023-02-13T08:54:10;42.78;;;31.33;;
11427;SDS011;5770;44.504;11.346;2023-02-13T08:56:37;36.72;;;29.05;;
11427;SDS011;5770;44.504;11.346;2023-02-13T08:59:04;36.88;;;30.25;;
11427;SDS011;5770;44.504;11.346;2023-02-13T09:01:31;41.88;;;30.65;;
11427;SDS011;5770;44.504;11.346;2023-02-13T09:03:58;37.47;;;29.27;;
11427;SDS011;5770;44.504;11.346;2023-02-13T09:06:25;37.00;;;29.85;;
11427;SDS011;5770;44.504;11.346;2023-02-13T09:08:52;43.55;;;31.27;;
11427;SDS011;5770;44.504;11.346;2023-02-13T09:11:21;43.58;;;33.08;;
11427;SDS011;5770;44.504;11.346;2023-02-13T09:13:48;41.45;;;32.47;;
11427;SDS011;5770;44.504;11.346;2023-02-13T09:16:15;44.85;;;32.95;;
11427;SDS011;5770;44.504;11.346;2023-02-13T09:18:42;38.92;;;32.55;;
11427;SDS011;5770;44.504;11.346;2023-02-13T09:21:11;43.03;;;34.10;;
11427;SDS011;5770;44.504;11.346;2023-02-13T09:23:39;48.72;;;36.67;;
11427;SDS011;5770;44.504;11.346;2023-02-13T09:26:07;41.17;;;32.90;;
11427;SDS011;5770;44.504;11.346;2023-02-13T09:28:36;40.28;;;33.88;;
11427;SDS011;5770;44.504;11.346;2023-02-13T09:31:06;45.58;;;34.10;;
11427;SDS011;5770;44.504;11.346;2023-02-13T09:33:34;42.28;;;34.30;;
11427;SDS011;5770;44.504;11.346;2023-02-13T09:36:05;45.90;;;34.22;;
11427;SDS011;5770;44.504;11.346;2023-02-13T09:38:32;43.17;;;34.92;;
11427;SDS011;5770;44.504;11.346;2023-02-13T09:41:01;44.67;;;35.50;;
11427;SDS011;5770;44.504;11.346;2023-02-13T09:43:31;44.90;;;35.58;;
11427;SDS011;5770;44.504;11.346;2023-02-13T09:46:03;44.95;;;34.92;;
11427;SDS011;5770;44.504;11.346;2023-02-13T09:48:31;48.38;;;33.15;;
11427;SDS011;5770;44.504;11.346;2023-02-13T09:51:01;44.38;;;35.45;;
11427;SDS011;5770;44.504;11.346;2023-02-13T09:53:30;43.25;;;34.15;;
11427;SDS011;5770;44.504;11.346;2023-02-13T09:56:03;42.63;;;34.00;;
11427;SDS011;5770;44.504;11.346;2023-02-13T09:58:38;40.78;;;33.45;;
11427;SDS011;5770;44.504;11.346;2023-02-13T10:01:15;45.80;;;33.72;;
11427;SDS011;5770;44.504;11.346;2023-02-13T10:03:51;42.78;;;34.97;;
11427;SDS011;5770;44.504;11.346;2023-02-13T10:06:29;43.42;;;33.42;;
11427;SDS011;5770;44.504;11.346;2023-02-13T10:09:03;42.28;;;33.67;;
11427;SDS011;5770;44.504;11.346;2023-02-13T10:11:41;38.63;;;33.15;;
11427;SDS011;5770;44.504;11.346;2023-02-13T10:14:22;39.55;;;33.15;;
11427;SDS011;5770;44.504;11.346;2023-02-13T10:16:54;42.15;;;33.05;;
11427;SDS011;5770;44.504;11.346;2023-02-13T10:19:27;46.25;;;32.95;;
11427;SDS011;5770;44.504;11.346;2023-02-13T10:22:00;45.42;;;33.38;;
11427;SDS011;5770;44.504;11.346;2023-02-13T10:24:33;47.92;;;34.95;;
11427;SDS011;5770;44.504;11.346;2023-02-13T10:27:05;45.13;;;35.15;;
11427;SDS011;5770;44.504;11.346;2023-02-13T10:29:45;47.20;;;34.78;;
11427;SDS011;5770;44.504;11.346;2023-02-13T10:32:35;48.35;;;34.00;;
11427;SDS011;5770;44.504;11.346;2023-02-13T10:35:15;38.30;;;32.28;;
11427;SDS011;5770;44.504;11.346;2023-02-13T10:37:45;37.50;;;31.73;;
11427;SDS011;5770;44.504;11.346;2023-02-13T10:40:15;44.67;;;33.08;;
11427;SDS011;5770;44.504;11.346;2023-02-13T10:42:44;38.35;;;30.50;;
11427;SDS011;5770;44.504;11.346;2023-02-13T10:45:19;42.05;;;32.22;;
11427;SDS011;5770;44.504;11.346;2023-02-13T10:48:00;43.03;;;32.60;;
11427;SDS011;5770;44.504;11.346;2023-02-13T10:50:40;38.72;;;31.10;;
11427;SDS011;5770;44.504;11.346;2023-02-13T10:53:14;40.67;;;31.20;;
11427;SDS011;5770;44.504;11.346;2023-02-13T10:58:35;37.83;;;29.10;;
11427;SDS011;5770;44.504;11.346;2023-02-13T11:01:13;34.22;;;28.73;;
11427;SDS011;5770;44.504;11.346;2023-02-13T11:03:45;36.60;;;27.92;;
11427;SDS011;5770;44.504;11.346;2023-02-13T11:06:15;39.15;;;29.45;;
11427;SDS011;5770;44.504;11.346;2023-02-13T11:08:44;32.80;;;28.60;;
11427;SDS011;5770;44.504;11.346;2023-02-13T11:11:28;35.20;;;26.25;;
11427;SDS011;5770;44.504;11.346;2023-02-13T11:14:07;31.17;;;26.85;;
11427;SDS011;5770;44.504;11.346;2023-02-13T11:16:39;37.63;;;25.15;;
11427;SDS011;5770;44.504;11.346;2023-02-13T11:19:17;34.45;;;27.30;;
11427;SDS011;5770;44.504;11.346;2023-02-13T11:21:47;35.13;;;27.23;;
11427;SDS011;5770;44.504;11.346;2023-02-13T11:24:20;34.78;;;25.75;;
11427;SDS011;5770;44.504;11.346;2023-02-13T11:26:49;34.28;;;26.05;;
11427;SDS011;5770;44.504;11.346;2023-02-13T11:29:20;34.92;;;26.30;;
11427;SDS011;5770;44.504;11.346;2023-02-13T11:32:00;37.20;;;25.42;;
11427;SDS011;5770;44.504;11.346;2023-02-13T11:34:32;27.55;;;21.55;;
11427;SDS011;5770;44.504;11.346;2023-02-13T11:37:19;26.52;;;21.17;;
11427;SDS011;5770;44.504;11.346;2023-02-13T11:39:47;26.27;;;20.33;;
11427;SDS011;5770;44.504;11.346;2023-02-13T11:42:18;24.13;;;19.52;;
11427;SDS011;5770;44.504;11.346;2023-02-13T11:44:51;24.10;;;19.75;;
11427;SDS011;5770;44.504;11.346;2023-02-13T11:47:31;30.70;;;21.63;;
11427;SDS011;5770;44.504;11.346;2023-02-13T11:50:02;24.02;;;19.60;;
11427;SDS011;5770;44.504;11.346;2023-02-13T11:52:31;24.85;;;19.33;;
11427;SDS011;5770;44.504;11.346;2023-02-13T11:55:00;29.00;;;19.95;;
11427;SDS011;5770;44.504;11.346;2023-02-13T11:57:32;26.23;;;21.20;;
11427;SDS011;5770;44.504;11.346;2023-02-13T12:00:00;22.60;;;18.00;;
11427;SDS011;5770;44.504;11.346;2023-02-13T12:02:28;21.70;;;17.50;;
11427;SDS011;5770;44.504;11.346;2023-02-13T12:05:15;21.42;;;16.05;;
11427;SDS011;5770;44.504;11.346;2023-02-13T12:07:43;21.17;;;16.95;;
11427;SDS011;5770;44.504;11.346;2023-02-13T12:10:15;21.33;;;16.77;;
11427;SDS011;5770;44.504;11.346;2023-02-13T12:12:44;19.95;;;16.35;;
11427;SDS011;5770;44.504;11.346;2023-02-13T12:15:17;22.38;;;18.58;;
11427;SDS011;5770;44.504;11.346;2023-02-13T12:17:48;31.25;;;19.10;;
11427;SDS011;5770;44.504;11.346;2023-02-13T12:20:23;28.00;;;19.33;;
11427;SDS011;5770;44.504;11.346;2023-02-13T12:22:56;21.25;;;15.77;;
11427;SDS011;5770;44.504;11.346;2023-02-13T12:25:44;23.20;;;16.85;;
11427;SDS011;5770;44.504;11.346;2023-02-13T12:28:35;24.13;;;17.15;;
11427;SDS011;5770;44.504;11.346;2023-02-13T12:31:24;21.95;;;17.05;;
11427;SDS011;5770;44.504;11.346;2023-02-13T12:37:17;20.60;;;16.50;;
11427;SDS011;5770;44.504;11.346;2023-02-13T12:39:57;21.38;;;16.98;;
11427;SDS011;5770;44.504;11.346;2023-02-13T12:42:40;23.00;;;16.30;;
11427;SDS011;5770;44.504;11.346;2023-02-13T12:45:15;21.30;;;16.85;;
11427;SDS011;5770;44.504;11.346;2023-02-13T12:48:00;21.00;;;15.52;;
11427;SDS011;5770;44.504;11.346;2023-02-13T12:50:50;20.38;;;15.38;;
11427;SDS011;5770;44.504;11.346;2023-02-13T12:53:28;22.20;;;15.77;;
11427;SDS011;5770;44.504;11.346;2023-02-13T12:59:03;17.90;;;15.55;;
11427;SDS011;5770;44.504;11.346;2023-02-13T13:04:38;18.45;;;15.05;;
11427;SDS011;5770;44.504;11.346;2023-02-13T13:07:21;18.17;;;13.75;;
11427;SDS011;5770;44.504;11.346;2023-02-13T13:09:58;17.70;;;14.85;;
11427;SDS011;5770;44.504;11.346;2023-02-13T13:12:35;18.25;;;14.80;;
11427;SDS011;5770;44.504;11.346;2023-02-13T13:15:10;19.05;;;14.95;;
11427;SDS011;5770;44.504;11.346;2023-02-13T13:17:47;16.90;;;14.43;;
11427;SDS011;5770;44.504;11.346;2023-02-13T13:20:31;19.63;;;14.85;;
11427;SDS011;5770;44.504;11.346;2023-02-13T13:23:23;18.55;;;14.90;;
11427;SDS011;5770;44.504;11.346;2023-02-13T13:26:01;18.60;;;14.85;;
11427;SDS011;5770;44.504;11.346;2023-02-13T13:28:36;17.70;;;14.95;;
11427;SDS011;5770;44.504;11.346;2023-02-13T13:31:05;17.50;;;14.98;;
11427;SDS011;5770;44.504;11.346;2023-02-13T13:33:33;21.92;;;17.02;;
11427;SDS011;5770;44.504;11.346;2023-02-13T13:36:06;24.48;;;17.17;;
11427;SDS011;5770;44.504;11.346;2023-02-13T13:38:45;23.85;;;17.33;;
11427;SDS011;5770;44.504;11.346;2023-02-13T13:41:21;18.98;;;14.63;;
11427;SDS011;5770;44.504;11.346;2023-02-13T13:43:57;22.00;;;16.35;;
11427;SDS011;5770;44.504;11.346;2023-02-13T13:46:45;21.40;;;16.35;;
11427;SDS011;5770;44.504;11.346;2023-02-13T13:49:23;20.13;;;16.00;;
11427;SDS011;5770;44.504;11.346;2023-02-13T13:52:09;23.15;;;16.83;;
11427;SDS011;5770;44.504;11.346;2023-02-13T13:54:44;24.35;;;16.90;;
11427;SDS011;5770;44.504;11.346;2023-02-13T13:57:17;20.88;;;16.45;;
11427;SDS011;5770;44.504;11.346;2023-02-13T14:00:00;19.17;;;15.60;;
11427;SDS011;5770;44.504;11.346;2023-02-13T14:02:46;20.40;;;15.45;;
11427;SDS011;5770;44.504;11.346;2023-02-13T14:05:19;23.13;;;15.10;;
11427;SDS011;5770;44.504;11.346;2023-02-13T14:07:54;19.27;;;14.23;;
11427;SDS011;5770;44.504;11.346;2023-02-13T14:13:33;16.73;;;14.40;;
11427;SDS011;5770;44.504;11.346;2023-02-13T14:16:02;16.48;;;13.77;;
11427;SDS011;5770;44.504;11.346;2023-02-13T14:18:30;20.55;;;14.27;;
11427;SDS011;5770;44.504;11.346;2023-02-13T14:20:58;17.17;;;13.63;;
11427;SDS011;5770;44.504;11.346;2023-02-13T14:23:31;19.63;;;14.60;;
11427;SDS011;5770;44.504;11.346;2023-02-13T14:26:18;20.83;;;13.98;;
11427;SDS011;5770;44.504;11.346;2023-02-13T14:29:16;20.67;;;14.43;;
11427;SDS011;5770;44.504;11.346;2023-02-13T14:31:51;19.55;;;14.15;;
11427;SDS011;5770;44.504;11.346;2023-02-13T14:34:26;18.15;;;14.32;;
11427;SDS011;5770;44.504;11.346;2023-02-13T14:37:01;20.55;;;15.63;;
11427;SDS011;5770;44.504;11.346;2023-02-13T14:39:41;22.92;;;16.27;;
11427;SDS011;5770;44.504;11.346;2023-02-13T14:42:20;20.27;;;15.65;;
11427;SDS011;5770;44.504;11.346;2023-02-13T14:44:52;21.80;;;15.95;;
11427;SDS011;5770;44.504;11.346;2023-02-13T14:47:23;20.02;;;16.02;;
11427;SDS011;5770;44.504;11.346;2023-02-13T14:49:55;22.15;;;15.27;;
11427;SDS011;5770;44.504;11.346;2023-02-13T14:52:24;17.63;;;14.68;;
11427;SDS011;5770;44.504;11.346;2023-02-13T14:54:53;20.08;;;15.57;;
11427;SDS011;5770;44.504;11.346;2023-02-13T14:57:25;18.85;;;15.43;;
11427;SDS011;5770;44.504;11.346;2023-02-13T14:59:55;21.42;;;16.33;;
11427;SDS011;5770;44.504;11.346;2023-02-13T15:02:23;18.70;;;16.08;;
11427;SDS011;5770;44.504;11.346;2023-02-13T15:04:53;21.98;;;15.25;;
11427;SDS011;5770;44.504;11.346;2023-02-13T15:07:21;22.02;;;16.00;;
11427;SDS011;5770;44.504;11.346;2023-02-13T15:09:49;18.10;;;15.02;;